createdAt,value
2019-03-24T00:00:12.315Z,9.88
2019-03-24T00:02:41.197Z,9.89
2019-03-24T00:05:11.112Z,9.95
2019-03-24T00:07:40.006Z,10.01
2019-03-24T00:10:09.595Z,9.85
2019-03-24T00:12:38.503Z,9.55
2019-03-24T00:15:09.539Z,9.59
2019-03-24T00:17:38.541Z,9.62
2019-03-24T00:20:10.034Z,9.70
2019-03-24T00:22:38.167Z,9.48
2019-03-24T00:25:08.468Z,9.64
2019-03-24T00:27:38.814Z,10.03
2019-03-24T00:30:08.507Z,9.82
2019-03-24T00:32:37.316Z,10.00
2019-03-24T00:35:07.535Z,9.80
2019-03-24T00:37:36.427Z,9.65
2019-03-24T00:40:07.872Z,9.80
2019-03-24T00:42:36.876Z,9.53
2019-03-24T00:45:09.934Z,9.55
2019-03-24T00:47:38.750Z,9.52
2019-03-24T00:50:08.054Z,9.48
2019-03-24T00:52:38.579Z,9.56
2019-03-24T00:55:08.083Z,9.45
2019-03-24T00:57:37.764Z,9.50
2019-03-24T01:00:11.228Z,9.41
2019-03-24T01:02:40.082Z,9.51
2019-03-24T01:05:10.867Z,9.47
2019-03-24T01:07:40.324Z,9.63
2019-03-24T01:10:10.548Z,9.36
2019-03-24T01:12:39.831Z,9.46
2019-03-24T01:15:10.299Z,9.30
2019-03-24T01:17:39.481Z,9.33
2019-03-24T01:20:09.903Z,9.24
2019-03-24T01:22:38.894Z,9.34
2019-03-24T01:25:07.996Z,9.26
2019-03-24T01:27:36.880Z,9.18
2019-03-24T01:30:07.925Z,9.05
2019-03-24T01:32:36.915Z,8.89
2019-03-24T01:35:07.042Z,8.98
2019-03-24T01:37:36.036Z,8.96
2019-03-24T01:40:07.423Z,9.25
2019-03-24T01:42:36.285Z,9.23
2019-03-24T01:45:10.508Z,9.27
2019-03-24T01:47:39.479Z,9.32
2019-03-24T01:50:09.674Z,9.25
2019-03-24T01:52:38.491Z,9.09
2019-03-24T01:55:07.590Z,9.21
2019-03-24T01:57:36.479Z,9.19
2019-03-24T02:00:09.066Z,9.00
2019-03-24T02:02:37.945Z,9.09
2019-03-24T02:05:07.638Z,9.14
2019-03-24T02:07:36.447Z,8.97
2019-03-24T02:10:07.840Z,9.05
2019-03-24T02:12:36.683Z,9.06
2019-03-24T02:15:07.218Z,8.95
2019-03-24T02:17:36.109Z,8.85
2019-03-24T02:20:06.610Z,8.74
2019-03-24T02:22:35.428Z,8.77
2019-03-24T02:25:05.445Z,8.81
2019-03-24T02:27:34.333Z,8.80
2019-03-24T02:30:03.230Z,8.84
2019-03-24T02:32:32.114Z,8.75
2019-03-24T02:35:01.009Z,8.83
2019-03-24T02:37:29.898Z,8.93
2019-03-24T02:39:58.798Z,8.82
2019-03-24T02:42:27.679Z,8.70
2019-03-24T02:44:56.671Z,8.77
2019-03-24T02:47:25.569Z,8.61
2019-03-24T02:49:54.457Z,8.53
2019-03-24T02:52:23.345Z,8.42
2019-03-24T02:54:52.239Z,8.62
2019-03-24T02:57:21.127Z,8.51
2019-03-24T02:59:50.020Z,8.57
2019-03-24T03:02:18.915Z,8.43
2019-03-24T03:04:47.800Z,8.48
2019-03-24T03:07:16.692Z,8.43
2019-03-24T03:09:45.588Z,8.64
2019-03-24T03:12:14.474Z,8.52
2019-03-24T03:14:43.368Z,8.42
2019-03-24T03:17:12.565Z,8.65
2019-03-24T03:19:41.459Z,8.51
2019-03-24T03:22:10.449Z,8.38
2019-03-24T03:24:39.341Z,8.43
2019-03-24T03:27:08.359Z,8.18
2019-03-24T03:29:37.253Z,8.10
2019-03-24T03:32:06.117Z,8.33
2019-03-24T03:34:35.008Z,8.37
2019-03-24T03:37:03.919Z,8.38
2019-03-24T03:39:32.894Z,8.24
2019-03-24T03:42:01.785Z,8.20
2019-03-24T03:44:30.675Z,8.24
2019-03-24T03:46:59.568Z,8.16
2019-03-24T03:49:28.458Z,8.12
2019-03-24T03:51:57.351Z,8.15
2019-03-24T03:54:26.241Z,7.93
2019-03-24T03:56:55.234Z,8.07
2019-03-24T03:59:24.123Z,7.95
2019-03-24T04:01:53.016Z,8.02
2019-03-24T04:04:21.914Z,8.01
2019-03-24T04:06:50.797Z,7.86
2019-03-24T04:09:19.689Z,8.07
2019-03-24T04:11:48.580Z,8.23
2019-03-24T04:14:17.470Z,8.06
2019-03-24T04:16:46.362Z,8.16
2019-03-24T04:19:15.254Z,8.05
2019-03-24T04:21:44.147Z,8.07
2019-03-24T04:24:13.038Z,8.13
2019-03-24T04:26:41.928Z,8.27
2019-03-24T04:29:11.636Z,7.85
2019-03-24T04:31:40.527Z,7.88
2019-03-24T04:34:10.140Z,7.81
2019-03-24T04:36:39.030Z,7.76
2019-03-24T04:39:08.128Z,7.61
2019-03-24T04:41:37.021Z,7.49
2019-03-24T04:44:06.009Z,7.34
2019-03-24T04:46:34.898Z,7.36
2019-03-24T04:49:03.794Z,7.28
2019-03-24T04:51:32.680Z,7.55
2019-03-24T04:54:01.581Z,7.49
2019-03-24T04:56:30.465Z,7.66
2019-03-24T04:58:59.358Z,7.73
2019-03-24T05:01:28.245Z,7.72
2019-03-24T05:03:57.142Z,7.50
2019-03-24T05:06:26.434Z,7.54
2019-03-24T05:08:55.533Z,7.63
2019-03-24T05:11:24.427Z,7.65
2019-03-24T05:13:53.316Z,7.82
2019-03-24T05:16:22.206Z,7.48
2019-03-24T05:18:52.634Z,7.45
2019-03-24T05:21:21.530Z,7.49
2019-03-24T05:23:50.417Z,7.38
2019-03-24T05:26:19.308Z,7.20
2019-03-24T05:28:49.838Z,7.27
2019-03-24T05:31:18.732Z,7.40
2019-03-24T05:33:47.620Z,7.60
2019-03-24T05:36:16.514Z,7.40
2019-03-24T05:38:45.412Z,7.27
2019-03-24T05:41:14.296Z,7.24
2019-03-24T05:43:43.190Z,7.39
2019-03-24T05:46:12.077Z,7.37
2019-03-24T05:48:40.967Z,7.34
2019-03-24T05:51:10.782Z,7.58
2019-03-24T05:53:39.679Z,7.63
2019-03-24T05:56:09.794Z,7.55
2019-03-24T05:58:39.135Z,7.39
2019-03-24T06:01:08.473Z,7.48
2019-03-24T06:03:39.032Z,7.40
2019-03-24T06:06:08.650Z,7.63
2019-03-24T06:08:37.531Z,7.61
2019-03-24T06:11:06.420Z,7.57
2019-03-24T06:13:35.819Z,7.46
2019-03-24T06:16:04.723Z,7.46
2019-03-24T06:18:33.599Z,7.50
2019-03-24T06:21:02.495Z,7.45
2019-03-24T06:23:31.381Z,7.60
2019-03-24T06:26:00.280Z,7.50
2019-03-24T06:28:29.165Z,7.62
2019-03-24T06:30:58.059Z,7.83
2019-03-24T06:33:26.950Z,7.85
2019-03-24T06:35:58.104Z,7.81
2019-03-24T06:38:26.984Z,8.03
2019-03-24T06:40:55.872Z,8.09
2019-03-24T06:43:24.763Z,8.38
2019-03-24T06:45:53.660Z,8.24
2019-03-24T06:48:22.546Z,7.85
2019-03-24T06:50:51.443Z,7.94
2019-03-24T06:53:20.332Z,8.03
2019-03-24T06:55:49.222Z,8.12
2019-03-24T06:58:18.113Z,8.21
2019-03-24T07:00:47.006Z,8.29
2019-03-24T07:03:15.894Z,8.31
2019-03-24T07:05:44.894Z,8.75
2019-03-24T07:08:14.886Z,8.58
2019-03-24T07:10:43.900Z,8.54
2019-03-24T07:13:12.791Z,8.64
2019-03-24T07:15:41.688Z,8.68
2019-03-24T07:18:11.188Z,8.92
2019-03-24T07:20:40.077Z,8.90
2019-03-24T07:23:09.996Z,8.85
2019-03-24T07:25:38.890Z,9.06
2019-03-24T07:28:08.900Z,9.47
2019-03-24T07:30:37.792Z,9.73
2019-03-24T07:33:07.605Z,9.74
2019-03-24T07:35:36.501Z,10.01
2019-03-24T07:38:05.505Z,10.19
2019-03-24T07:40:34.389Z,10.45
2019-03-24T07:43:03.378Z,10.34
2019-03-24T07:45:32.271Z,10.37
2019-03-24T07:48:01.166Z,10.37
2019-03-24T07:50:30.051Z,10.38
2019-03-24T07:52:58.943Z,10.41
2019-03-24T07:55:27.833Z,10.33
2019-03-24T07:57:56.724Z,10.90
2019-03-24T08:00:33.788Z,10.58
2019-03-24T08:03:02.600Z,10.85
2019-03-24T08:05:31.589Z,10.87
2019-03-24T08:08:00.483Z,11.23
2019-03-24T08:10:29.727Z,11.17
2019-03-24T08:12:59.132Z,11.29
2019-03-24T08:15:28.282Z,11.11
2019-03-24T08:17:57.173Z,11.39
2019-03-24T08:20:26.168Z,11.40
2019-03-24T08:22:55.158Z,11.23
2019-03-24T08:25:24.056Z,11.48
2019-03-24T08:27:52.845Z,11.71
2019-03-24T08:30:33.707Z,11.28
2019-03-24T08:33:02.938Z,11.52
2019-03-24T08:35:31.737Z,11.56
2019-03-24T08:38:00.695Z,11.80
2019-03-24T08:40:29.584Z,11.95
2019-03-24T08:42:58.476Z,11.96
2019-03-24T08:45:29.084Z,11.88
2019-03-24T08:47:58.715Z,12.02
2019-03-24T08:50:28.048Z,12.08
2019-03-24T08:52:57.390Z,11.98
2019-03-24T08:55:26.315Z,12.16
2019-03-24T08:57:56.736Z,12.15
2019-03-24T09:00:30.606Z,12.24
2019-03-24T09:02:56.260Z,12.35
2019-03-24T09:05:25.258Z,12.44
2019-03-24T09:07:54.145Z,12.49
2019-03-24T09:10:23.138Z,12.29
2019-03-24T09:12:52.028Z,12.45
2019-03-24T09:15:20.962Z,12.63
2019-03-24T09:17:49.913Z,12.66
2019-03-24T09:20:18.906Z,12.57
2019-03-24T09:22:47.797Z,12.58
2019-03-24T09:25:16.806Z,12.57
2019-03-24T09:27:45.784Z,12.73
2019-03-24T09:30:31.986Z,12.88
2019-03-24T09:33:00.981Z,12.90
2019-03-24T09:35:29.971Z,13.01
2019-03-24T09:37:58.968Z,12.89
2019-03-24T09:40:32.626Z,13.01
2019-03-24T09:43:02.581Z,13.23
2019-03-24T09:45:31.984Z,13.50
2019-03-24T09:48:01.229Z,13.53
2019-03-24T09:50:30.231Z,13.49
2019-03-24T09:52:59.170Z,13.37
2019-03-24T09:55:28.163Z,13.54
2019-03-24T09:57:57.055Z,13.41
2019-03-24T10:00:25.948Z,13.49
2019-03-24T10:02:54.837Z,13.73
2019-03-24T10:05:23.730Z,14.02
2019-03-24T10:07:53.159Z,13.75
2019-03-24T10:10:22.024Z,13.79
2019-03-24T10:12:51.021Z,14.09
2019-03-24T10:15:20.129Z,14.44
2019-03-24T10:17:49.108Z,14.59
2019-03-24T10:20:18.006Z,14.18
2019-03-24T10:22:46.993Z,14.64
2019-03-24T10:25:15.886Z,15.15
2019-03-24T10:27:44.776Z,15.59
2019-03-24T10:30:14.180Z,15.76
2019-03-24T10:32:43.391Z,15.62
2019-03-24T10:35:13.397Z,14.88
2019-03-24T10:37:42.286Z,15.13
2019-03-24T10:40:13.326Z,15.42
2019-03-24T10:42:42.324Z,15.46
2019-03-24T10:45:12.544Z,15.78
2019-03-24T10:47:41.441Z,15.68
2019-03-24T10:50:14.341Z,15.66
2019-03-24T10:52:42.905Z,16.00
2019-03-24T10:55:14.592Z,15.94
2019-03-24T10:57:43.452Z,15.70
2019-03-24T11:00:14.268Z,15.84
2019-03-24T11:02:43.175Z,15.93
2019-03-24T11:05:12.688Z,15.87
2019-03-24T11:07:41.693Z,15.65
2019-03-24T11:10:11.349Z,15.64
2019-03-24T11:12:40.174Z,15.95
2019-03-24T11:15:10.381Z,15.76
2019-03-24T11:17:39.391Z,15.79
2019-03-24T11:20:09.492Z,15.84
2019-03-24T11:22:38.301Z,15.79
2019-03-24T11:25:10.299Z,15.79
2019-03-24T11:27:39.255Z,15.90
2019-03-24T11:30:12.766Z,15.75
2019-03-24T11:32:42.057Z,16.13
2019-03-24T11:35:11.563Z,16.41
2019-03-24T11:37:40.457Z,16.06
2019-03-24T11:40:11.803Z,16.21
2019-03-24T11:42:42.127Z,16.33
2019-03-24T11:45:13.417Z,16.27
2019-03-24T11:47:42.266Z,16.31
2019-03-24T11:50:11.644Z,16.50
2019-03-24T11:52:41.888Z,16.51
2019-03-24T11:55:11.603Z,16.68
2019-03-24T11:57:40.494Z,16.77
2019-03-24T12:00:12.356Z,16.86
2019-03-24T12:02:41.349Z,16.65
2019-03-24T12:05:11.775Z,16.79
2019-03-24T12:07:40.663Z,16.84
2019-03-24T12:10:11.207Z,16.90
2019-03-24T12:12:40.212Z,17.06
2019-03-24T12:15:10.103Z,17.32
2019-03-24T12:17:38.992Z,17.56
2019-03-24T12:20:08.608Z,16.94
2019-03-24T12:22:37.799Z,17.16
2019-03-24T12:25:07.598Z,17.25
2019-03-24T12:27:36.612Z,17.43
2019-03-24T12:30:07.854Z,17.54
2019-03-24T12:32:36.743Z,17.62
2019-03-24T12:35:07.251Z,17.54
2019-03-24T12:37:36.063Z,17.55
2019-03-24T12:40:06.868Z,17.51
2019-03-24T12:42:35.691Z,17.41
2019-03-24T12:45:07.046Z,17.74
2019-03-24T12:47:37.053Z,17.55
2019-03-24T12:50:09.294Z,17.70
2019-03-24T12:52:38.421Z,17.61
2019-03-24T12:55:08.022Z,17.51
2019-03-24T12:57:37.022Z,17.80
2019-03-24T13:00:11.702Z,17.77
2019-03-24T13:02:40.545Z,18.15
2019-03-24T13:05:10.865Z,18.08
2019-03-24T13:07:39.860Z,17.99
2019-03-24T13:10:10.171Z,18.20
2019-03-24T13:12:39.074Z,18.01
2019-03-24T13:15:08.465Z,17.86
2019-03-24T13:17:39.020Z,18.17
2019-03-24T13:20:19.618Z,18.35
2019-03-24T13:22:38.741Z,18.31
2019-03-24T13:25:08.051Z,18.39
2019-03-24T13:27:36.928Z,18.41
2019-03-24T13:30:07.455Z,18.60
2019-03-24T13:32:36.552Z,18.77
2019-03-24T13:35:07.593Z,19.18
2019-03-24T13:37:36.587Z,19.18
2019-03-24T13:40:05.997Z,18.95
2019-03-24T13:42:34.882Z,18.95
2019-03-24T13:45:03.880Z,19.29
2019-03-24T13:47:32.770Z,19.32
2019-03-24T13:50:01.657Z,19.55
2019-03-24T13:52:30.548Z,19.38
2019-03-24T13:54:59.441Z,19.50
2019-03-24T13:57:28.344Z,19.68
2019-03-24T13:59:58.706Z,19.55
2019-03-24T14:02:29.183Z,19.28
2019-03-24T14:04:58.080Z,19.27
2019-03-24T14:07:26.968Z,19.77
2019-03-24T14:09:55.857Z,19.82
2019-03-24T14:12:24.749Z,20.45
2019-03-24T14:14:53.639Z,20.21
2019-03-24T14:17:22.530Z,20.31
2019-03-24T14:19:51.421Z,20.75
2019-03-24T14:22:21.338Z,20.20
2019-03-24T14:24:50.229Z,20.09
2019-03-24T14:27:19.120Z,20.51
2019-03-24T14:29:48.014Z,20.34
2019-03-24T14:32:16.902Z,20.37
2019-03-24T14:34:45.795Z,20.19
2019-03-24T14:37:14.822Z,20.30
2019-03-24T14:39:43.812Z,20.24
2019-03-24T14:42:12.671Z,20.43
2019-03-24T14:44:41.566Z,21.01
2019-03-24T14:47:11.074Z,20.48
2019-03-24T14:49:39.957Z,20.47
2019-03-24T14:52:09.160Z,20.35
2019-03-24T14:54:38.047Z,20.92
2019-03-24T14:57:07.649Z,20.79
2019-03-24T14:59:36.653Z,21.20
2019-03-24T15:02:05.543Z,21.25
2019-03-24T15:04:34.433Z,20.39
2019-03-24T15:07:04.860Z,20.95
2019-03-24T15:09:33.752Z,21.26
2019-03-24T15:12:02.645Z,21.38
2019-03-24T15:14:31.534Z,21.19
2019-03-24T15:17:00.433Z,21.11
2019-03-24T15:19:29.316Z,21.00
2019-03-24T15:21:58.245Z,20.42
2019-03-24T15:24:27.110Z,20.85
2019-03-24T15:26:56.093Z,21.47
2019-03-24T15:29:26.522Z,21.49
2019-03-24T15:31:55.411Z,20.77
2019-03-24T15:34:24.302Z,20.61
2019-03-24T15:36:53.294Z,21.05
2019-03-24T15:39:22.194Z,20.94
2019-03-24T15:41:51.283Z,20.49
2019-03-24T15:44:20.198Z,20.80
2019-03-24T15:46:49.167Z,20.66
2019-03-24T15:49:18.060Z,21.23
2019-03-24T15:51:46.953Z,21.38
2019-03-24T15:54:15.841Z,20.63
2019-03-24T15:56:44.730Z,20.54
2019-03-24T15:59:13.622Z,20.56
2019-03-24T16:01:42.513Z,20.39
2019-03-24T16:04:12.124Z,20.83
2019-03-24T16:06:41.024Z,20.73
2019-03-24T16:09:10.109Z,20.30
2019-03-24T16:11:39.002Z,20.80
2019-03-24T16:14:08.590Z,20.99
2019-03-24T16:16:37.602Z,20.25
2019-03-24T16:19:07.529Z,20.12
2019-03-24T16:21:36.408Z,20.16
2019-03-24T16:24:05.402Z,20.39
2019-03-24T16:26:34.292Z,20.61
2019-03-24T16:29:03.184Z,20.94
2019-03-24T16:31:32.075Z,20.73
2019-03-24T16:34:01.069Z,20.16
2019-03-24T16:36:30.266Z,20.06
2019-03-24T16:39:03.689Z,19.73
2019-03-24T16:41:31.224Z,20.12
2019-03-24T16:44:00.224Z,20.40
2019-03-24T16:46:29.212Z,20.51
2019-03-24T16:48:58.105Z,20.04
2019-03-24T16:51:38.008Z,19.98
2019-03-24T16:53:59.264Z,19.87
2019-03-24T16:56:28.156Z,19.86
2019-03-24T16:58:57.065Z,19.85
2019-03-24T17:01:25.940Z,19.42
2019-03-24T17:03:54.830Z,19.36
2019-03-24T17:06:23.722Z,19.19
2019-03-24T17:08:52.610Z,19.54
2019-03-24T17:11:21.508Z,19.13
2019-03-24T17:13:50.393Z,18.87
2019-03-24T17:16:19.286Z,18.39
2019-03-24T17:18:48.174Z,19.00
2019-03-24T17:21:17.069Z,18.87
2019-03-24T17:23:45.958Z,18.82
2019-03-24T17:26:14.859Z,18.25
2019-03-24T17:28:43.739Z,18.00
2019-03-24T17:31:12.632Z,17.80
2019-03-24T17:33:41.523Z,17.78
2019-03-24T17:36:10.824Z,17.71
2019-03-24T17:38:39.715Z,17.22
2019-03-24T17:41:09.221Z,17.19
2019-03-24T17:43:38.112Z,17.16
2019-03-24T17:46:07.928Z,17.28
2019-03-24T17:48:36.820Z,17.08
2019-03-24T17:51:05.711Z,17.04
2019-03-24T17:53:34.640Z,16.73
2019-03-24T17:56:03.492Z,16.41
2019-03-24T17:58:32.382Z,16.62
2019-03-24T18:01:01.272Z,16.36
2019-03-24T18:03:30.166Z,16.13
2019-03-24T18:05:59.723Z,15.95
2019-03-24T18:08:28.666Z,15.77
2019-03-24T18:10:57.553Z,15.83
2019-03-24T18:13:26.446Z,15.70
2019-03-24T18:15:55.443Z,15.58
2019-03-24T18:18:24.329Z,15.68
2019-03-24T18:20:53.221Z,15.75
2019-03-24T18:23:22.122Z,15.81
2019-03-24T18:25:51.518Z,15.73
2019-03-24T18:28:20.621Z,15.49
2019-03-24T18:30:49.623Z,15.27
2019-03-24T18:33:19.042Z,14.84
2019-03-24T18:35:47.901Z,14.71
2019-03-24T18:38:16.792Z,14.62
2019-03-24T18:40:45.687Z,14.39
2019-03-24T18:43:14.642Z,14.33
2019-03-24T18:45:45.004Z,14.16
2019-03-24T18:48:14.022Z,14.01
2019-03-24T18:50:42.890Z,14.03
2019-03-24T18:53:11.778Z,13.68
2019-03-24T18:55:40.671Z,13.62
2019-03-24T18:58:10.691Z,13.62
2019-03-24T19:00:39.575Z,13.56
2019-03-24T19:03:08.606Z,13.59
2019-03-24T19:05:37.461Z,13.69
2019-03-24T19:08:07.379Z,13.58
2019-03-24T19:10:36.267Z,13.74
2019-03-24T19:13:05.474Z,13.72
2019-03-24T19:15:34.358Z,13.56
2019-03-24T19:18:03.248Z,13.40
2019-03-24T19:20:32.140Z,13.39
2019-03-24T19:23:01.031Z,13.42
2019-03-24T19:25:29.925Z,13.31
2019-03-24T19:27:58.823Z,13.36
2019-03-24T19:30:38.802Z,13.00
2019-03-24T19:33:10.198Z,12.98
2019-03-24T19:35:39.224Z,13.02
2019-03-24T19:38:08.814Z,12.98
2019-03-24T19:40:37.800Z,13.00
2019-03-24T19:43:06.813Z,12.92
2019-03-24T19:45:35.718Z,12.97
2019-03-24T19:48:06.438Z,13.02
2019-03-24T19:50:37.063Z,12.94
2019-03-24T19:53:06.387Z,13.00
2019-03-24T19:55:35.360Z,12.95
2019-03-24T19:58:04.271Z,12.67
2019-03-24T20:00:33.137Z,12.90
2019-03-24T20:03:02.034Z,12.89
2019-03-24T20:05:32.462Z,12.74
2019-03-24T20:08:02.888Z,12.81
2019-03-24T20:10:31.778Z,12.62
2019-03-24T20:13:02.305Z,12.54
2019-03-24T20:15:31.200Z,12.64
2019-03-24T20:18:00.098Z,12.51
2019-03-24T20:20:28.981Z,12.54
2019-03-24T20:22:57.872Z,12.31
2019-03-24T20:25:26.791Z,12.44
2019-03-24T20:27:56.881Z,12.29
2019-03-24T20:30:25.697Z,12.36
2019-03-24T20:32:54.648Z,12.00
2019-03-24T20:35:23.765Z,11.96
2019-03-24T20:37:52.676Z,11.95
2019-03-24T20:40:22.977Z,11.95
2019-03-24T20:42:55.715Z,12.00
2019-03-24T20:45:24.651Z,11.60
2019-03-24T20:47:53.466Z,11.46
2019-03-24T20:50:22.333Z,11.63
2019-03-24T20:52:51.223Z,11.85
2019-03-24T20:55:20.113Z,11.79
2019-03-24T20:57:51.382Z,11.71
2019-03-24T21:00:22.640Z,11.66
2019-03-24T21:02:51.908Z,11.48
2019-03-24T21:05:20.806Z,11.70
2019-03-24T21:07:49.690Z,11.76
2019-03-24T21:10:18.587Z,11.84
2019-03-24T21:12:47.470Z,11.84
2019-03-24T21:15:16.362Z,11.74
2019-03-24T21:17:45.252Z,11.66
2019-03-24T21:20:14.580Z,11.83
2019-03-24T21:22:44.572Z,11.52
2019-03-24T21:25:13.467Z,11.47
2019-03-24T21:27:42.354Z,11.44
2019-03-24T21:30:12.548Z,11.43
2019-03-24T21:32:42.597Z,11.35
2019-03-24T21:35:13.540Z,11.32
2019-03-24T21:37:42.428Z,11.43
2019-03-24T21:40:12.851Z,11.19
2019-03-24T21:42:41.743Z,11.26
2019-03-24T21:45:13.379Z,11.34
2019-03-24T21:47:42.322Z,11.05
2019-03-24T21:50:13.765Z,10.99
2019-03-24T21:52:42.635Z,11.25
2019-03-24T21:55:12.355Z,11.27
2019-03-24T21:57:41.259Z,11.27
2019-03-24T22:00:11.776Z,11.32
2019-03-24T22:02:40.979Z,11.11
2019-03-24T22:05:10.887Z,11.13
2019-03-24T22:07:39.941Z,10.99
2019-03-24T22:10:09.371Z,11.05
2019-03-24T22:12:38.270Z,11.07
2019-03-24T22:15:27.878Z,11.00
2019-03-24T22:17:58.175Z,11.33
2019-03-24T22:20:27.063Z,11.25
2019-03-24T22:22:57.696Z,11.17
2019-03-24T22:25:28.224Z,11.20
2019-03-24T22:30:46.790Z,11.12
2019-03-24T22:33:15.688Z,10.98
2019-03-24T22:35:47.091Z,11.09
2019-03-24T22:38:15.205Z,11.25
2019-03-24T22:40:44.096Z,11.10
2019-03-24T22:43:12.990Z,11.13
2019-03-24T22:45:41.879Z,11.06
2019-03-24T22:48:11.795Z,11.14
2019-03-24T22:50:40.686Z,10.95
2019-03-24T22:53:09.884Z,10.97
2019-03-24T22:55:38.775Z,10.99
2019-03-24T22:58:07.668Z,10.92
2019-03-24T23:00:53.149Z,11.07
2019-03-24T23:03:24.927Z,11.04
2019-03-24T23:05:53.284Z,10.92
2019-03-24T23:08:22.386Z,10.81
2019-03-24T23:10:51.276Z,10.58
2019-03-24T23:13:20.276Z,10.63
2019-03-24T23:15:49.159Z,10.39
2019-03-24T23:18:18.050Z,10.52
2019-03-24T23:20:46.940Z,10.30
2019-03-24T23:23:15.834Z,10.28
2019-03-24T23:25:44.722Z,10.30
2019-03-24T23:28:13.726Z,10.33
2019-03-24T23:30:42.720Z,9.96
2019-03-24T23:33:12.831Z,10.05
2019-03-24T23:35:41.642Z,10.09
2019-03-24T23:38:10.717Z,10.23
2019-03-24T23:40:39.612Z,10.33
2019-03-24T23:43:09.113Z,10.10
2019-03-24T23:45:38.002Z,10.09
2019-03-24T23:48:07.813Z,9.98
2019-03-24T23:50:36.706Z,9.95
2019-03-24T23:53:05.910Z,9.87
2019-03-24T23:55:34.706Z,9.71
2019-03-24T23:58:03.589Z,9.46
